Time;durP1;ratioP1;P1;durP2;ratioP2;P2;SDS_P1;SDS_P2;PMS_P1;PMS_P2;Temp;Humidity;BMP_temperature;BMP_pressure;BME280_temperature;BME280_humidity;BME280_pressure;Samples;Min_cycle;Max_cycle;Signal;HPM_P1;HPM_P2
2023/05/06 00:00:44;;;;;;;6.90;4.90;;;;;;;9.07;59.79;96865.39;109380;1270;22577;-82
2023/05/06 00:03:19;;;;;;;7.50;4.80;;;;;;;9.02;59.98;96861.63;109545;1270;22476;-82
2023/05/06 00:05:51;;;;;;;6.20;4.80;;;;;;;8.95;60.02;96862.77;109501;1270;22585;-82
2023/05/06 00:08:22;;;;;;;7.10;4.60;;;;;;;8.91;60.29;96860.65;109513;1264;22588;-82
2023/05/06 00:10:53;;;;;;;7.10;4.60;;;;;;;8.89;60.57;96864.04;109437;1269;23440;-82
2023/05/06 00:13:24;;;;;;;7.60;4.70;;;;;;;8.83;60.47;96868.77;109363;1271;22550;-82
2023/05/06 00:15:55;;;;;;;8.50;5.20;;;;;;;8.76;60.56;96870.81;109296;1272;22553;-82
2023/05/06 00:18:27;;;;;;;8.40;5.70;;;;;;;8.68;60.52;96870.41;109346;1271;22520;-82
2023/05/06 00:20:57;;;;;;;8.70;5.50;;;;;;;8.66;60.69;96871.98;109394;1271;22696;-83
2023/05/06 00:23:30;;;;;;;7.30;4.40;;;;;;;8.48;60.86;96873.55;109372;1271;22512;-82
2023/05/06 00:26:01;;;;;;;6.70;4.00;;;;;;;8.27;61.27;96876.54;109376;1271;22463;-82
2023/05/06 00:28:32;;;;;;;6.20;3.80;;;;;;;8.27;61.98;96880.02;109394;1271;23082;-82
2023/05/06 00:31:03;;;;;;;6.50;3.90;;;;;;;8.12;61.88;96877.35;109373;1271;22516;-82
2023/05/06 00:33:34;;;;;;;6.30;3.90;;;;;;;7.85;62.52;96878.40;109353;1272;22522;-82
2023/05/06 00:36:05;;;;;;;6.30;4.40;;;;;;;7.87;63.17;96878.10;109397;1271;25284;-82
2023/05/06 00:38:36;;;;;;;9.60;5.90;;;;;;;7.95;63.42;96871.60;109338;1271;24212;-82
2023/05/06 00:41:08;;;;;;;6.60;4.10;;;;;;;8.01;63.44;96869.16;109349;1271;23095;-82
2023/05/06 00:43:40;;;;;;;6.50;4.20;;;;;;;8.03;63.41;96864.00;109374;1270;24139;-82
2023/05/06 00:46:11;;;;;;;7.60;4.60;;;;;;;7.98;63.56;96868.61;109369;1272;22616;-82
2023/05/06 00:48:43;;;;;;;6.20;4.40;;;;;;;7.99;63.65;96866.61;109355;1272;22604;-83
2023/05/06 00:51:15;;;;;;;8.00;4.70;;;;;;;8.08;63.82;96864.09;109382;1264;22623;-82
2023/05/06 00:53:46;;;;;;;6.40;4.30;;;;;;;8.18;63.64;96862.71;109488;1266;22507;-82
2023/05/06 00:56:20;;;;;;;7.30;4.50;;;;;;;8.16;63.53;96859.52;109483;1264;25449;-82
2023/05/06 00:58:51;;;;;;;7.10;4.70;;;;;;;8.12;63.34;96862.20;109443;1270;22582;-82
2023/05/06 01:01:23;;;;;;;7.80;4.50;;;;;;;8.02;63.68;96858.03;109388;1264;22547;-82
2023/05/06 01:03:57;;;;;;;7.10;4.60;;;;;;;8.05;63.90;96853.71;109336;1271;22523;-82
2023/05/06 01:06:36;;;;;;;7.60;4.10;;;;;;;8.08;63.93;96855.05;109341;1270;24238;-82
2023/05/06 01:09:18;;;;;;;6.30;4.30;;;;;;;8.08;63.99;96855.05;109328;1271;25278;-82
2023/05/06 01:11:53;;;;;;;8.60;4.20;;;;;;;8.14;63.95;96852.95;109487;1270;22522;-82
2023/05/06 01:14:30;;;;;;;7.00;4.40;;;;;;;8.11;63.99;96855.38;109484;1267;22517;-82
2023/05/06 01:17:07;;;;;;;6.20;3.70;;;;;;;8.02;64.23;96853.01;109554;1247;22517;-82
2023/05/06 01:19:45;;;;;;;4.90;3.80;;;;;;;7.78;64.26;96851.70;109566;1270;22672;-82
2023/05/06 01:22:20;;;;;;;7.00;4.00;;;;;;;7.70;64.77;96851.74;109452;1264;22535;-83
2023/05/06 01:24:52;;;;;;;4.30;3.50;;;;;;;7.63;64.77;96846.80;109476;1269;22515;-82
2023/05/06 01:27:26;;;;;;;5.90;4.30;;;;;;;7.65;65.13;96847.86;109427;1263;22523;-82
2023/05/06 01:30:01;;;;;;;6.20;4.00;;;;;;;7.72;65.23;96844.09;109390;1270;22527;-83
2023/05/06 01:32:44;;;;;;;5.10;3.90;;;;;;;7.70;65.12;96842.93;109507;1264;22654;-82
2023/05/06 01:35:24;;;;;;;7.30;4.10;;;;;;;7.71;65.36;96837.98;109572;1264;22515;-82
2023/05/06 01:38:04;;;;;;;7.30;4.90;;;;;;;7.76;65.42;96840.66;109482;1260;22555;-82
2023/05/06 01:40:37;;;;;;;6.30;4.30;;;;;;;7.73;65.28;96836.15;109530;1264;22549;-82
2023/05/06 01:43:12;;;;;;;10.90;6.00;;;;;;;7.60;65.29;96834.80;109546;1270;22550;-82
2023/05/06 01:45:48;;;;;;;8.30;4.30;;;;;;;7.51;65.72;96838.38;109558;1258;25391;-83
2023/05/06 01:48:20;;;;;;;8.00;5.00;;;;;;;7.55;66.01;96838.70;109525;1270;22575;-83
2023/05/06 01:50:52;;;;;;;8.40;4.60;;;;;;;7.59;66.01;96834.56;109512;1264;23517;-82
2023/05/06 01:53:24;;;;;;;7.70;4.70;;;;;;;7.60;65.85;96837.31;109491;1270;25259;-83
2023/05/06 01:55:55;;;;;;;6.70;5.00;;;;;;;7.64;66.16;96838.36;109535;1264;22520;-82
2023/05/06 01:58:26;;;;;;;11.50;5.20;;;;;;;7.70;66.07;96838.48;109558;1264;22512;-83
2023/05/06 02:00:58;;;;;;;6.10;4.10;;;;;;;7.74;66.13;96838.64;109544;1267;29403;-82
2023/05/06 02:03:29;;;;;;;7.00;4.10;;;;;;;7.73;66.07;96838.37;109540;1264;24246;-82
2023/05/06 02:06:01;;;;;;;5.80;3.80;;;;;;;7.42;66.04;96836.88;109522;1270;22456;-82
2023/05/06 02:08:32;;;;;;;7.20;4.50;;;;;;;7.22;66.85;96835.55;109561;1270;22556;-82
2023/05/06 02:11:04;;;;;;;6.70;4.30;;;;;;;7.25;67.44;96830.77;109487;1264;35354;-82
2023/05/06 02:13:35;;;;;;;6.40;4.40;;;;;;;7.35;67.40;96830.91;109489;1264;24295;-82
2023/05/06 02:16:07;;;;;;;7.10;4.50;;;;;;;7.33;67.30;96828.98;109541;1262;22567;-82
2023/05/06 02:18:38;;;;;;;6.20;4.30;;;;;;;7.14;67.34;96832.16;109514;1264;25410;-82
2023/05/06 02:21:10;;;;;;;6.00;4.40;;;;;;;7.17;67.74;96834.66;109501;1267;91355;-82
2023/05/06 02:23:41;;;;;;;7.20;5.10;;;;;;;7.19;67.74;96834.05;109594;1263;22582;-82
2023/05/06 02:26:12;;;;;;;6.90;4.70;;;;;;;7.23;67.94;96832.61;109554;1266;22511;-83
2023/05/06 02:28:43;;;;;;;6.20;4.50;;;;;;;7.31;67.94;96833.30;109546;1248;22511;-82
2023/05/06 02:31:16;;;;;;;5.70;4.20;;;;;;;7.21;67.72;96831.21;109563;1251;22759;-82
2023/05/06 02:33:47;;;;;;;5.60;4.50;;;;;;;7.12;68.30;96830.77;109518;1270;23143;-82
2023/05/06 02:36:18;;;;;;;6.90;4.60;;;;;;;7.20;68.49;96827.25;109534;1267;22445;-82
2023/05/06 02:38:49;;;;;;;6.60;4.40;;;;;;;7.28;68.49;96826.14;109559;1264;22567;-82
2023/05/06 02:41:21;;;;;;;6.90;4.50;;;;;;;7.29;68.52;96823.46;109606;1270;22514;-82
2023/05/06 02:43:53;;;;;;;6.90;5.10;;;;;;;7.36;68.46;96820.36;109559;1264;22549;-82
2023/05/06 02:46:24;;;;;;;6.30;4.40;;;;;;;7.43;68.56;96818.73;109565;1264;23768;-83
2023/05/06 02:48:55;;;;;;;8.00;5.20;;;;;;;7.48;68.49;96819.00;109534;1270;25325;-83
2023/05/06 02:51:27;;;;;;;7.30;4.60;;;;;;;7.52;68.42;96819.23;109518;1267;22708;-82
2023/05/06 02:53:59;;;;;;;5.50;3.80;;;;;;;7.46;68.50;96816.86;109523;1254;22567;-83
2023/05/06 02:56:32;;;;;;;5.80;4.20;;;;;;;7.25;68.60;96817.06;109576;1269;25405;-82
2023/05/06 02:59:03;;;;;;;6.20;4.20;;;;;;;7.10;69.13;96823.21;109526;1264;22939;-82
2023/05/06 03:01:34;;;;;;;6.30;4.60;;;;;;;6.97;69.40;96819.88;109491;1264;26559;-82
2023/05/06 03:04:05;;;;;;;6.90;4.20;;;;;;;7.01;70.08;96816.96;109508;1263;22524;-82
2023/05/06 03:06:36;;;;;;;8.00;4.20;;;;;;;7.14;70.33;96812.80;109480;1270;24288;-82
2023/05/06 03:09:08;;;;;;;7.30;4.20;;;;;;;7.26;70.27;96812.11;109494;1270;23312;-82
2023/05/06 03:11:39;;;;;;;5.60;4.30;;;;;;;7.32;70.29;96815.02;109526;1270;22798;-82
2023/05/06 03:14:12;;;;;;;5.60;4.20;;;;;;;7.33;70.04;96813.34;109538;1264;22508;-82
2023/05/06 03:16:43;;;;;;;7.50;4.30;;;;;;;7.21;70.08;96811.44;109505;1264;25434;-83
2023/05/06 03:19:14;;;;;;;8.30;4.90;;;;;;;7.25;70.53;96808.41;109516;1270;22884;-82
2023/05/06 03:21:45;;;;;;;6.40;4.60;;;;;;;7.38;70.57;96810.58;109480;1267;22553;-82
2023/05/06 03:24:16;;;;;;;6.70;4.70;;;;;;;7.49;70.57;96808.28;109477;1264;24186;-82
2023/05/06 03:26:47;;;;;;;6.40;4.40;;;;;;;7.60;70.59;96800.38;109519;1264;24209;-82
2023/05/06 03:29:19;;;;;;;6.20;4.70;;;;;;;7.68;70.69;96802.29;109516;1270;22528;-83
2023/05/06 03:31:52;;;;;;;7.20;4.80;;;;;;;7.77;70.48;96801.98;109532;1264;22559;-83
2023/05/06 03:34:23;;;;;;;8.00;4.40;;;;;;;7.84;70.37;96797.52;109513;1265;22550;-83
2023/05/06 03:36:54;;;;;;;7.00;4.70;;;;;;;7.93;70.53;96799.84;109504;1262;22508;-83
2023/05/06 03:39:26;;;;;;;8.60;4.60;;;;;;;8.03;70.32;96800.84;109539;1264;22583;-82
2023/05/06 03:41:57;;;;;;;8.40;5.00;;;;;;;8.07;70.22;96800.02;109507;1264;22515;-83
2023/05/06 03:44:28;;;;;;;8.30;4.60;;;;;;;8.13;70.34;96803.68;109508;1269;23560;-83
2023/05/06 03:47:01;;;;;;;7.30;4.40;;;;;;;8.18;70.12;96805.67;109495;1264;25233;-82
2023/05/06 03:49:33;;;;;;;7.20;4.30;;;;;;;8.22;70.07;96804.90;109492;1263;23256;-83
2023/05/06 03:52:05;;;;;;;6.00;4.30;;;;;;;8.28;70.04;96801.63;109501;1264;23741;-83
2023/05/06 03:54:37;;;;;;;5.70;4.10;;;;;;;8.31;70.00;96801.25;109487;1267;22502;-82
2023/05/06 03:57:09;;;;;;;6.80;4.70;;;;;;;8.36;70.01;96807.92;109496;1270;22709;-82
2023/05/06 03:59:40;;;;;;;8.10;4.90;;;;;;;8.38;70.03;96810.69;109484;1264;22610;-83
2023/05/06 04:02:11;;;;;;;7.40;4.90;;;;;;;8.37;70.16;96807.57;109497;1267;24233;-82
2023/05/06 04:04:44;;;;;;;7.50;4.70;;;;;;;8.35;70.31;96801.55;109436;1263;137910;-83
2023/05/06 04:07:14;;;;;;;7.60;4.80;;;;;;;8.40;70.39;96802.71;109522;1270;25391;-83
2023/05/06 04:09:45;;;;;;;6.60;4.30;;;;;;;8.51;70.40;96800.44;109510;1264;22756;-82
2023/05/06 04:12:16;;;;;;;7.10;5.70;;;;;;;8.64;70.72;96799.83;109519;1263;22515;-82
2023/05/06 04:14:47;;;;;;;6.80;4.40;;;;;;;8.72;70.54;96799.06;109536;1264;25278;-82
2023/05/06 04:17:19;;;;;;;5.60;4.50;;;;;;;8.78;70.37;96803.62;109499;1263;22520;-82
2023/05/06 04:19:52;;;;;;;7.10;4.70;;;;;;;8.87;70.47;96806.86;109478;1263;23931;-82
2023/05/06 04:22:24;;;;;;;6.80;4.80;;;;;;;8.92;70.39;96804.02;109474;1263;24174;-82
2023/05/06 04:24:55;;;;;;;7.30;5.10;;;;;;;8.89;70.28;96806.77;109526;1247;22555;-82
2023/05/06 04:27:30;;;;;;;6.30;4.80;;;;;;;8.90;70.41;96805.70;109495;1267;22519;-82
2023/05/06 04:30:02;;;;;;;6.50;4.70;;;;;;;8.98;70.59;96807.02;109475;1269;23267;-83
2023/05/06 04:32:34;;;;;;;5.70;4.20;;;;;;;9.10;70.64;96811.64;109509;1267;22822;-82
2023/05/06 04:35:06;;;;;;;7.30;4.90;;;;;;;9.22;70.86;96813.25;109494;1264;25268;-82
2023/05/06 04:37:40;;;;;;;5.80;4.30;;;;;;;9.34;71.25;96812.88;109553;1263;24254;-82
2023/05/06 04:40:16;;;;;;;6.80;4.50;;;;;;;9.49;71.48;96813.30;109505;1267;24171;-82
2023/05/06 04:42:48;;;;;;;6.40;4.60;;;;;;;9.66;71.03;96811.58;109351;1264;23812;-82
2023/05/06 04:45:19;;;;;;;6.40;4.90;;;;;;;9.79;71.27;96813.89;109370;1271;22606;-82
2023/05/06 04:47:51;;;;;;;5.50;4.30;;;;;;;9.95;71.38;96810.84;109343;1266;22557;-82
2023/05/06 04:50:22;;;;;;;5.30;4.50;;;;;;;10.20;71.18;96811.27;109352;1269;22530;-82
2023/05/06 04:52:55;;;;;;;9.30;5.00;;;;;;;10.46;71.05;96814.56;109370;1248;22466;-82
2023/05/06 04:55:29;;;;;;;6.40;4.60;;;;;;;10.76;71.10;96813.95;109301;1264;23740;-82
2023/05/06 04:58:01;;;;;;;6.50;4.60;;;;;;;11.02;71.24;96816.54;109346;1264;22530;-82
2023/05/06 05:00:32;;;;;;;8.10;4.70;;;;;;;11.75;72.14;96821.29;109334;1266;22535;-82
2023/05/06 05:03:05;;;;;;;6.70;4.50;;;;;;;11.98;69.99;96819.39;109322;1266;23189;-82
2023/05/06 05:05:36;;;;;;;6.70;4.60;;;;;;;11.84;69.16;96814.52;109355;1266;22608;-82
2023/05/06 05:08:12;;;;;;;9.70;5.30;;;;;;;11.68;68.50;96818.41;109346;1271;22507;-83
2023/05/06 05:10:45;;;;;;;8.80;5.50;;;;;;;11.67;68.13;96816.35;109430;1269;22508;-83
2023/05/06 05:13:19;;;;;;;8.30;5.40;;;;;;;11.99;68.55;96815.37;109448;1267;22704;-83
2023/05/06 05:15:54;;;;;;;7.00;4.80;;;;;;;12.33;67.62;96814.64;109392;1270;22556;-83
2023/05/06 05:18:25;;;;;;;9.10;4.70;;;;;;;12.25;67.06;96814.15;109476;1263;22565;-82
2023/05/06 05:20:57;;;;;;;5.40;4.40;;;;;;;12.17;66.77;96813.17;109438;1269;22459;-83
2023/05/06 05:23:31;;;;;;;7.10;5.00;;;;;;;12.22;67.26;96812.58;109377;1271;22550;-83
2023/05/06 05:26:05;;;;;;;7.10;5.40;;;;;;;12.67;67.95;96813.36;109359;1268;22647;-83
2023/05/06 05:28:42;;;;;;;7.00;4.90;;;;;;;13.33;67.74;96814.02;109379;1271;25319;-83
2023/05/06 05:31:13;;;;;;;6.00;4.80;;;;;;;15.83;70.07;96809.24;109372;1271;23772;-83
2023/05/06 05:33:44;;;;;;;5.30;4.10;;;;;;;18.90;67.09;96802.93;109421;1263;22566;-81
2023/05/06 05:36:17;;;;;;;6.90;4.40;;;;;;;20.52;60.17;96801.08;109420;1264;23608;-81
2023/05/06 05:38:51;;;;;;;5.10;4.30;;;;;;;20.34;55.82;96799.63;109349;1266;22684;-81
2023/05/06 05:41:22;;;;;;;5.70;4.40;;;;;;;18.93;52.17;96801.27;109389;1264;24494;-81
2023/05/06 05:43:54;;;;;;;7.80;5.40;;;;;;;17.16;53.16;96807.20;109388;1264;22726;-82
2023/05/06 05:46:29;;;;;;;6.30;4.90;;;;;;;15.86;55.08;96807.36;109295;1271;24008;-81
2023/05/06 05:49:00;;;;;;;8.70;6.30;;;;;;;14.92;56.63;96804.57;109171;1272;22579;-83
2023/05/06 05:51:39;;;;;;;7.20;5.40;;;;;;;14.25;57.67;96803.85;109259;1268;24178;-83
2023/05/06 05:54:10;;;;;;;8.00;5.10;;;;;;;14.09;59.17;96800.42;109287;1266;23886;-84
2023/05/06 05:56:44;;;;;;;6.90;5.10;;;;;;;15.23;58.81;96796.81;109280;1266;25456;-83
2023/05/06 05:59:17;;;;;;;7.10;5.40;;;;;;;15.45;57.91;96793.36;109252;1266;22576;-84
2023/05/06 06:01:56;;;;;;;8.90;5.80;;;;;;;16.23;57.95;96787.45;109277;1272;22674;-83
2023/05/06 06:04:30;;;;;;;8.80;4.90;;;;;;;17.52;56.74;96784.76;109272;1268;24253;-84
2023/05/06 06:07:01;;;;;;;7.10;5.40;;;;;;;18.93;54.63;96779.96;109134;1266;23809;-84
2023/05/06 06:09:32;;;;;;;5.00;4.30;;;;;;;19.55;52.45;96778.99;109331;1272;22500;-84
2023/05/06 06:12:05;;;;;;;6.40;5.00;;;;;;;20.29;52.55;96777.08;109227;1271;22470;-82
2023/05/06 06:14:40;;;;;;;4.50;4.00;;;;;;;21.49;51.47;96776.87;109316;1272;22543;-82
2023/05/06 06:17:13;;;;;;;7.00;4.60;;;;;;;22.41;48.91;96779.36;109285;1272;22561;-84
2023/05/06 06:19:45;;;;;;;5.50;4.40;;;;;;;23.02;46.95;96774.09;109326;1271;22519;-84
2023/05/06 06:22:17;;;;;;;5.40;4.40;;;;;;;23.94;45.01;96771.02;109238;1272;22616;-84
2023/05/06 06:24:49;;;;;;;6.40;4.80;;;;;;;24.13;42.74;96772.50;109254;1269;22544;-84
2023/05/06 06:27:23;;;;;;;5.80;4.20;;;;;;;24.43;41.21;96766.50;109314;1266;22527;-84
2023/05/06 06:29:54;;;;;;;5.30;4.50;;;;;;;24.59;39.52;96763.77;109246;1271;22515;-83
2023/05/06 06:36:01;;;;;;;4.70;4.30;;;;;;;23.94;38.66;96765.19;109146;1269;22515;-81
2023/05/06 06:38:35;;;;;;;5.50;4.10;;;;;;;22.25;40.04;96771.95;109140;1266;22580;-83
2023/05/06 06:41:09;;;;;;;8.10;4.50;;;;;;;21.90;40.65;96774.17;109232;1266;24186;-83
2023/05/06 06:43:43;;;;;;;5.40;4.40;;;;;;;21.73;41.92;96773.13;109244;1271;22735;-83
2023/05/06 06:46:17;;;;;;;5.50;4.20;;;;;;;21.87;42.56;96769.78;109283;1271;22515;-80
2023/05/06 06:48:52;;;;;;;5.50;4.40;;;;;;;23.27;41.69;96765.07;109326;1266;23242;-80
2023/05/06 06:51:28;;;;;;;6.90;4.70;;;;;;;24.54;39.17;96758.43;109317;1264;22676;-83
2023/05/06 06:54:02;;;;;;;5.90;4.50;;;;;;;25.13;37.75;96756.64;109220;1266;22469;-83
2023/05/06 06:56:33;;;;;;;6.10;4.60;;;;;;;25.82;38.33;96759.51;109307;1270;22552;-84
2023/05/06 06:59:09;;;;;;;5.20;4.00;;;;;;;26.65;38.86;96758.17;109294;1272;22567;-84
2023/05/06 07:01:42;;;;;;;4.60;3.80;;;;;;;27.28;38.04;96756.42;109270;1272;22483;-81
2023/05/06 07:04:14;;;;;;;4.90;4.00;;;;;;;27.51;36.33;96757.51;109269;1271;24767;-81
2023/05/06 07:06:46;;;;;;;4.80;4.00;;;;;;;27.03;33.80;96757.38;109269;1271;22698;-81
2023/05/06 07:09:17;;;;;;;5.50;4.20;;;;;;;26.65;35.14;96758.41;109286;1266;23079;-81
2023/05/06 07:11:49;;;;;;;6.90;4.70;;;;;;;27.50;35.94;96752.75;109181;1269;22533;-81
2023/05/06 07:14:25;;;;;;;5.80;4.40;;;;;;;28.74;36.10;96752.91;109158;1270;22510;-83
2023/05/06 07:16:56;;;;;;;5.60;4.80;;;;;;;29.19;33.40;96748.58;109161;1266;22856;-83
2023/05/06 07:19:30;;;;;;;5.90;4.50;;;;;;;28.37;34.06;96749.14;109197;1266;22995;-81
2023/05/06 07:22:03;;;;;;;5.50;4.40;;;;;;;29.42;34.64;96746.05;109240;1272;24327;-83
2023/05/06 07:24:35;;;;;;;6.90;4.40;;;;;;;30.82;34.06;96743.61;109228;1269;22519;-82
2023/05/06 07:27:07;;;;;;;6.10;4.30;;;;;;;32.02;32.73;96740.30;109266;1266;22458;-81
2023/05/06 07:29:41;;;;;;;5.00;4.40;;;;;;;32.91;32.17;96739.27;109282;1272;22548;-81
2023/05/06 07:32:12;;;;;;;5.60;4.90;;;;;;;32.90;28.07;96732.91;109255;1266;24436;-81
2023/05/06 07:34:45;;;;;;;6.70;5.20;;;;;;;32.32;29.96;96731.67;109253;1272;23729;-81
2023/05/06 07:37:17;;;;;;;8.00;5.40;;;;;;;32.88;30.17;96724.20;109276;1266;22540;-82
2023/05/06 07:39:48;;;;;;;7.00;6.30;;;;;;;33.42;29.53;96722.08;109324;1269;25414;-83
2023/05/06 07:42:20;;;;;;;9.10;7.80;;;;;;;32.23;26.30;96720.87;109205;1272;24353;-83
2023/05/06 07:44:51;;;;;;;9.00;6.60;;;;;;;31.01;28.35;96723.55;109245;1266;23793;-83
2023/05/06 07:47:30;;;;;;;7.20;6.40;;;;;;;31.51;30.37;96719.48;109435;1267;23256;-84
2023/05/06 07:50:01;;;;;;;7.00;5.70;;;;;;;32.50;28.37;96717.66;109313;1272;25054;-83
2023/05/06 07:52:32;;;;;;;6.20;5.60;;;;;;;31.13;27.21;96718.30;109230;1265;22563;-83
2023/05/06 07:55:04;;;;;;;6.80;5.00;;;;;;;30.79;29.55;96715.27;109151;1266;22576;-84
2023/05/06 07:57:35;;;;;;;9.60;6.10;;;;;;;31.35;28.31;96713.75;109326;1272;22585;-83
2023/05/06 08:00:09;;;;;;;6.10;5.50;;;;;;;31.29;29.20;96711.58;109111;1266;55284;-83
2023/05/06 08:02:42;;;;;;;8.00;6.00;;;;;;;31.79;29.81;96704.22;109123;1272;22463;-83
2023/05/06 08:05:14;;;;;;;6.40;5.70;;;;;;;32.52;29.27;96704.05;109145;1272;22479;-83
2023/05/06 08:07:46;;;;;;;6.70;5.80;;;;;;;33.11;29.15;96700.98;109157;1272;22619;-83
2023/05/06 08:10:17;;;;;;;8.00;5.10;;;;;;;33.88;28.34;96701.19;109146;1272;22486;-83
2023/05/06 08:12:49;;;;;;;7.80;5.40;;;;;;;33.93;28.16;96704.14;109150;1272;22587;-84
2023/05/06 08:15:21;;;;;;;6.30;5.00;;;;;;;34.22;27.88;96704.21;109165;1266;22456;-83
2023/05/06 08:17:54;;;;;;;7.40;5.70;;;;;;;33.97;26.58;96705.29;109117;1266;23005;-83
2023/05/06 08:20:26;;;;;;;6.80;4.70;;;;;;;32.97;27.06;96703.69;109118;1268;22568;-83
2023/05/06 08:22:59;;;;;;;7.20;5.40;;;;;;;33.09;26.96;96700.47;109132;1267;22483;-83
2023/05/06 08:25:31;;;;;;;6.70;5.30;;;;;;;32.70;26.90;96696.66;109147;1272;22785;-83
2023/05/06 08:28:02;;;;;;;5.70;5.10;;;;;;;32.50;26.38;96694.83;109130;1266;22516;-83
2023/05/06 08:30:34;;;;;;;5.80;5.20;;;;;;;31.93;27.97;96695.86;109095;1272;23307;-83
2023/05/06 08:33:05;;;;;;;6.20;5.20;;;;;;;32.43;28.51;96691.11;109171;1272;22821;-83
2023/05/06 08:35:36;;;;;;;6.60;5.30;;;;;;;32.81;27.47;96690.34;109150;1266;22519;-83
2023/05/06 08:38:07;;;;;;;5.70;5.20;;;;;;;33.00;28.05;96689.41;109164;1272;23896;-83
2023/05/06 08:40:44;;;;;;;7.90;5.00;;;;;;;32.83;25.85;96687.08;109127;1272;24241;-83
2023/05/06 08:43:20;;;;;;;7.00;5.60;;;;;;;32.20;27.82;96680.48;109129;1272;24304;-84
2023/05/06 08:45:51;;;;;;;7.00;5.50;;;;;;;33.40;28.21;96676.41;109163;1266;22504;-83
2023/05/06 08:48:23;;;;;;;6.30;5.10;;;;;;;34.73;27.70;96677.23;109123;1272;22567;-83
2023/05/06 08:50:57;;;;;;;7.70;5.50;;;;;;;35.84;27.20;96668.30;109158;1272;24209;-83
2023/05/06 08:53:29;;;;;;;7.90;5.60;;;;;;;36.67;26.47;96666.70;109115;1272;25313;-83
2023/05/06 08:56:04;;;;;;;7.50;4.90;;;;;;;37.30;25.78;96668.75;109141;1272;22515;-83
2023/05/06 08:58:37;;;;;;;6.60;5.40;;;;;;;36.22;22.82;96670.91;109151;1272;22514;-83
2023/05/06 09:01:09;;;;;;;5.80;5.00;;;;;;;34.80;24.36;96667.69;109202;1266;22504;-83
2023/05/06 09:03:40;;;;;;;6.70;5.60;;;;;;;34.45;24.80;96664.88;109333;1268;22574;-83
2023/05/06 09:06:11;;;;;;;7.80;5.60;;;;;;;34.46;26.46;96661.30;109294;1271;22497;-83
2023/05/06 09:08:42;;;;;;;7.90;5.90;;;;;;;34.44;26.18;96657.73;109299;1272;22543;-83
2023/05/06 09:11:26;;;;;;;7.70;6.00;;;;;;;33.70;27.09;96652.02;109211;1266;22547;-83
2023/05/06 09:14:12;;;;;;;8.50;6.20;;;;;;;32.87;27.59;96648.23;109284;1272;23313;-83
2023/05/06 09:16:44;;;;;;;10.70;6.20;;;;;;;31.81;28.30;96645.02;109330;1272;22571;-82
2023/05/06 09:19:16;;;;;;;6.50;5.40;;;;;;;30.50;28.97;96642.69;109332;1272;22588;-82
2023/05/06 09:21:49;;;;;;;7.90;5.40;;;;;;;29.64;30.33;96641.83;109144;1266;24234;-82
2023/05/06 09:24:21;;;;;;;6.80;5.30;;;;;;;29.01;30.80;96637.36;109143;1272;24049;-83
2023/05/06 09:26:54;;;;;;;7.80;5.50;;;;;;;28.52;31.58;96632.86;109073;1265;24187;-83
2023/05/06 09:29:25;;;;;;;6.40;5.40;;;;;;;27.97;32.45;96632.57;109137;1272;22554;-83
2023/05/06 09:31:56;;;;;;;8.70;5.70;;;;;;;27.68;32.95;96631.73;109256;1271;23770;-82
2023/05/06 09:34:29;;;;;;;7.30;5.30;;;;;;;27.29;32.89;96626.06;109270;1271;22501;-82
2023/05/06 09:37:00;;;;;;;7.90;5.70;;;;;;;26.91;33.67;96625.63;109253;1269;22562;-82
2023/05/06 09:39:32;;;;;;;8.10;5.40;;;;;;;26.77;34.36;96620.85;109271;1272;22527;-83
2023/05/06 09:42:03;;;;;;;7.50;4.60;;;;;;;26.63;34.24;96617.83;109769;1272;23347;-82
2023/05/06 09:44:34;;;;;;;6.30;5.10;;;;;;;25.81;34.64;96617.17;109343;1272;22537;-82
2023/05/06 09:47:06;;;;;;;7.80;4.40;;;;;;;25.44;35.73;96611.13;109142;1249;22678;-82
2023/05/06 09:49:37;;;;;;;5.20;4.20;;;;;;;25.47;35.72;96606.96;109218;1272;22517;-83
2023/05/06 09:52:11;;;;;;;6.00;4.50;;;;;;;25.27;35.08;96602.44;109285;1266;23361;-82
2023/05/06 09:54:43;;;;;;;6.20;4.50;;;;;;;24.69;35.66;96601.96;109271;1266;24408;-80
2023/05/06 09:57:17;;;;;;;6.30;4.70;;;;;;;24.20;35.89;96595.98;109268;1272;24427;-80
2023/05/06 09:59:50;;;;;;;6.40;4.50;;;;;;;23.97;36.53;96592.27;109325;1266;22511;-80
2023/05/06 10:02:24;;;;;;;5.80;4.30;;;;;;;23.97;37.40;96583.30;109236;1272;22518;-80
2023/05/06 10:04:57;;;;;;;6.60;4.30;;;;;;;23.97;37.53;96581.96;109262;1271;23855;-80
2023/05/06 10:07:36;;;;;;;6.40;5.10;;;;;;;23.72;38.15;96576.04;109272;1264;22511;-79
2023/05/06 10:10:12;;;;;;;7.60;5.00;;;;;;;23.80;38.81;96568.02;109222;1272;22565;-79
2023/05/06 10:12:44;;;;;;;6.30;4.00;;;;;;;23.88;38.56;96563.27;109222;1272;22535;-79
2023/05/06 10:15:20;;;;;;;5.80;4.40;;;;;;;23.71;38.14;96559.70;109133;1272;22586;-80
2023/05/06 10:17:54;;;;;;;6.40;4.20;;;;;;;23.29;38.07;96554.23;109254;1268;22571;-79
2023/05/06 10:20:26;;;;;;;5.60;4.50;;;;;;;22.67;38.86;96548.25;109206;1272;22567;-80
2023/05/06 10:23:09;;;;;;;7.10;4.80;;;;;;;22.43;39.32;96545.87;109324;1269;24726;-78
2023/05/06 10:25:42;;;;;;;5.80;4.20;;;;;;;22.30;39.60;96538.11;109291;1272;22507;-78
2023/05/06 10:28:15;;;;;;;5.00;4.30;;;;;;;22.29;39.84;96532.85;109266;1272;22470;-79
2023/05/06 10:30:52;;;;;;;6.10;4.20;;;;;;;22.36;40.14;96528.89;109260;1272;22556;-79
2023/05/06 10:33:25;;;;;;;5.40;4.10;;;;;;;22.26;40.08;96524.84;109346;1266;22552;-79
2023/05/06 10:36:12;;;;;;;5.50;3.90;;;;;;;21.57;40.64;96525.79;109279;1272;25243;-79
2023/05/06 10:38:48;;;;;;;6.70;4.10;;;;;;;20.67;41.68;96523.36;109320;1271;25313;-79
2023/05/06 10:41:26;;;;;;;8.20;5.00;;;;;;;20.49;42.77;96517.86;109336;1265;22507;-79
2023/05/06 10:43:59;;;;;;;7.20;4.50;;;;;;;20.44;43.46;96512.05;109267;1271;22903;-78
2023/05/06 10:46:33;;;;;;;6.90;4.00;;;;;;;20.52;43.25;96508.87;109232;1272;22527;-79
2023/05/06 10:49:19;;;;;;;5.20;4.50;;;;;;;20.66;42.90;96504.33;109275;1271;22511;-80
2023/05/06 10:52:12;;;;;;;5.00;3.80;;;;;;;20.72;43.05;96494.40;109286;1272;24195;-79
2023/05/06 10:54:52;;;;;;;8.00;4.30;;;;;;;20.81;43.23;96485.06;109267;1269;22504;-80
2023/05/06 10:57:40;;;;;;;5.00;4.30;;;;;;;20.80;43.42;96480.80;109320;1272;22550;-79
2023/05/06 11:00:21;;;;;;;5.00;4.00;;;;;;;20.79;43.49;96477.14;109256;1272;22508;-80
2023/05/06 11:03:04;;;;;;;5.30;4.40;;;;;;;20.78;43.63;96478.83;109139;1266;24304;-80
2023/05/06 11:05:51;;;;;;;7.10;4.90;;;;;;;20.66;44.24;96482.63;109171;1270;23693;-80
2023/05/06 11:08:26;;;;;;;5.90;4.50;;;;;;;20.27;44.31;96485.55;109202;1266;22533;-80
2023/05/06 11:11:00;;;;;;;5.30;4.30;;;;;;;20.17;44.50;96488.59;109222;1271;22637;-80
2023/05/06 11:13:36;;;;;;;6.10;4.80;;;;;;;20.15;44.85;96492.17;109194;1271;22465;-80
2023/05/06 11:16:08;;;;;;;5.30;4.40;;;;;;;20.12;44.95;96491.98;109330;1269;22560;-80
2023/05/06 11:18:47;;;;;;;9.40;4.50;;;;;;;20.07;45.11;96494.55;109283;1272;22504;-80
2023/05/06 11:21:40;;;;;;;8.90;4.70;;;;;;;19.96;45.21;96492.30;109181;1269;22536;-80
2023/05/06 11:24:13;;;;;;;5.70;4.20;;;;;;;19.86;45.45;96492.28;109130;1272;22514;-80
2023/05/06 11:26:47;;;;;;;5.60;3.90;;;;;;;19.87;45.87;96497.30;109170;1266;22512;-81
2023/05/06 11:29:20;;;;;;;4.80;3.90;;;;;;;19.84;45.99;96507.73;109224;1268;22573;-81
2023/05/06 11:31:56;;;;;;;7.30;4.20;;;;;;;19.75;46.20;96515.55;109191;1265;22511;-80
2023/05/06 11:34:34;;;;;;;4.50;4.00;;;;;;;19.64;46.54;96519.45;109244;1272;25288;-81
2023/05/06 11:37:23;;;;;;;6.30;4.10;;;;;;;19.39;47.54;96528.16;109380;1266;22550;-80
2023/05/06 11:39:55;;;;;;;8.70;5.40;;;;;;;18.92;48.44;96536.39;109318;1271;22574;-78
2023/05/06 11:42:29;;;;;;;9.40;5.30;;;;;;;18.33;50.34;96543.02;109288;1271;22473;-82
2023/05/06 11:45:09;;;;;;;8.10;5.30;;;;;;;17.82;52.11;96553.10;109399;1266;22821;-82
2023/05/06 11:47:43;;;;;;;;;;;;;;;17.43;55.15;96557.53;109415;1272;22529;-82
2023/05/06 11:50:21;;;;;;;8.70;5.70;;;;;;;16.95;56.84;96570.55;109308;1272;22513;-81
2023/05/06 11:52:55;;;;;;;9.90;6.40;;;;;;;16.49;59.69;96585.25;109140;1272;22983;-82
2023/05/06 11:55:30;;;;;;;8.20;6.20;;;;;;;16.07;61.82;96607.31;109144;1272;22524;-82
2023/05/06 11:58:12;;;;;;;8.50;6.50;;;;;;;15.77;63.10;96622.31;109137;1266;22511;-82
2023/05/06 12:00:50;;;;;;;10.70;6.60;;;;;;;15.56;63.76;96624.85;109209;1272;22545;-81